createdAt,value
2018-01-31T01:52:57.434Z,18.63
2018-01-31T01:55:02.032Z,17.97
2018-01-31T01:57:04.664Z,20.57
2018-01-31T01:59:07.303Z,18.67
2018-01-31T02:01:09.986Z,18.63
2018-01-31T02:03:12.630Z,19.47
2018-01-31T02:05:15.286Z,19.13
2018-01-31T02:07:17.944Z,18.73
2018-01-31T02:09:20.596Z,17.90
2018-01-31T02:11:23.265Z,18.30
2018-01-31T02:13:25.911Z,17.70
2018-01-31T02:15:28.570Z,16.00
2018-01-31T02:17:31.251Z,17.13
2018-01-31T02:19:33.891Z,17.20
2018-01-31T02:21:37.287Z,17.23
2018-01-31T02:23:40.732Z,16.23
2018-01-31T02:25:43.369Z,15.23
2018-01-31T02:27:46.018Z,16.90
2018-01-31T02:29:49.462Z,15.20
2018-01-31T02:31:52.119Z,17.03
2018-01-31T02:33:54.781Z,15.67
2018-01-31T02:35:58.227Z,16.17
2018-01-31T02:38:00.861Z,15.50
2018-01-31T02:40:03.586Z,16.27
2018-01-31T02:42:06.419Z,14.90
2018-01-31T02:44:09.080Z,14.20
2018-01-31T02:46:12.506Z,14.13
2018-01-31T02:48:15.144Z,15.53
2018-01-31T02:50:18.590Z,15.67
2018-01-31T02:52:21.232Z,15.13
2018-01-31T02:54:23.888Z,15.10
2018-01-31T02:56:27.308Z,15.87
2018-01-31T02:58:29.960Z,15.30
2018-01-31T03:00:33.406Z,14.50
2018-01-31T03:02:36.254Z,14.50
2018-01-31T03:04:38.888Z,14.87
2018-01-31T03:06:41.551Z,15.10
2018-01-31T03:08:44.423Z,15.77
2018-01-31T03:10:47.098Z,14.30
2018-01-31T03:12:49.784Z,13.30
2018-01-31T03:14:52.454Z,14.47
2018-01-31T03:16:55.148Z,14.70
2018-01-31T03:18:57.794Z,14.67
2018-01-31T03:21:00.442Z,14.50
2018-01-31T03:23:03.112Z,13.40
2018-01-31T03:25:05.757Z,13.00
2018-01-31T03:27:08.397Z,12.70
2018-01-31T03:29:11.836Z,13.40
2018-01-31T03:31:15.256Z,11.53
2018-01-31T03:33:17.919Z,12.57
2018-01-31T03:35:20.591Z,11.53
2018-01-31T03:37:23.268Z,11.63
2018-01-31T03:39:26.677Z,12.03
2018-01-31T03:41:30.293Z,11.40
2018-01-31T03:43:33.016Z,11.67
2018-01-31T03:45:35.672Z,12.00
2018-01-31T03:47:38.349Z,11.43
2018-01-31T03:49:40.999Z,11.80
2018-01-31T03:51:43.697Z,11.63
2018-01-31T03:53:46.437Z,10.97
2018-01-31T03:55:49.083Z,11.97
2018-01-31T03:57:52.612Z,11.13
2018-01-31T03:59:55.255Z,11.33
2018-01-31T04:01:58.697Z,9.87
2018-01-31T04:04:01.328Z,10.80
2018-01-31T04:06:04.757Z,10.60
2018-01-31T04:08:07.485Z,9.03
2018-01-31T04:10:10.138Z,9.27
2018-01-31T04:12:12.868Z,10.60
2018-01-31T04:14:17.605Z,10.73
2018-01-31T04:16:20.260Z,9.60
2018-01-31T04:18:23.723Z,10.10
2018-01-31T04:20:26.405Z,9.80
2018-01-31T04:22:29.123Z,9.57
2018-01-31T04:24:31.779Z,8.60
2018-01-31T04:26:35.251Z,9.27
2018-01-31T04:28:37.922Z,8.87
2018-01-31T04:30:40.681Z,8.87
2018-01-31T04:32:43.430Z,8.67
2018-01-31T04:34:46.082Z,7.90
2018-01-31T04:36:49.531Z,9.13
2018-01-31T04:38:52.274Z,8.97
2018-01-31T04:40:54.927Z,8.80
2018-01-31T04:42:58.364Z,8.67
2018-01-31T04:45:01.011Z,8.67
2018-01-31T04:47:03.692Z,8.20
2018-01-31T04:49:06.429Z,8.47
2018-01-31T04:51:09.132Z,7.50
2018-01-31T04:53:12.530Z,7.37
2018-01-31T04:55:15.229Z,7.83
2018-01-31T04:57:17.884Z,8.30
2018-01-31T04:59:20.526Z,6.87
2018-01-31T05:01:23.184Z,6.40
2018-01-31T05:03:26.008Z,6.30
2018-01-31T05:05:29.600Z,7.07
2018-01-31T05:07:33.022Z,6.40
2018-01-31T05:09:35.724Z,6.67
2018-01-31T05:11:38.375Z,6.20
2018-01-31T05:13:41.038Z,6.87
2018-01-31T05:15:47.105Z,6.83
2018-01-31T05:17:49.780Z,6.60
2018-01-31T05:19:52.412Z,7.23
2018-01-31T05:21:55.076Z,6.80
2018-01-31T05:23:57.730Z,7.50
2018-01-31T05:26:00.368Z,6.77
2018-01-31T05:28:03.029Z,6.40
2018-01-31T05:30:06.441Z,6.60
2018-01-31T05:32:09.093Z,5.80
2018-01-31T05:34:11.770Z,5.40
2018-01-31T05:36:14.454Z,5.63
2018-01-31T05:38:18.084Z,5.40
2018-01-31T05:40:20.723Z,5.20
2018-01-31T05:42:24.168Z,6.00
2018-01-31T05:44:26.830Z,5.47
2018-01-31T05:46:29.486Z,5.20
2018-01-31T05:48:32.203Z,4.90
2018-01-31T05:50:34.862Z,5.50
2018-01-31T05:52:37.522Z,5.30
2018-01-31T05:54:40.187Z,5.73
2018-01-31T05:56:43.601Z,5.63
2018-01-31T05:58:46.489Z,5.83
2018-01-31T06:00:49.158Z,6.47
2018-01-31T06:02:51.787Z,6.00
2018-01-31T06:04:54.428Z,6.20
2018-01-31T06:06:57.077Z,5.93
2018-01-31T06:08:59.727Z,6.60
2018-01-31T06:11:03.142Z,6.53
2018-01-31T06:13:05.821Z,6.67
2018-01-31T06:15:09.642Z,6.27
2018-01-31T06:17:12.493Z,6.93
2018-01-31T06:19:15.274Z,6.70
2018-01-31T06:21:18.090Z,6.00
2018-01-31T06:23:20.734Z,5.77
2018-01-31T06:25:23.398Z,6.67
2018-01-31T06:27:26.810Z,5.83
2018-01-31T06:29:29.524Z,6.03
2018-01-31T06:31:32.182Z,6.50
2018-01-31T06:33:34.861Z,6.50
2018-01-31T06:35:37.534Z,7.80
2018-01-31T06:37:40.191Z,7.80
2018-01-31T06:39:42.842Z,5.40
2018-01-31T06:41:46.282Z,7.00
2018-01-31T06:43:48.956Z,4.70
2018-01-31T06:45:51.673Z,14.07
2018-01-31T06:47:54.376Z,6.03
2018-01-31T06:49:57.016Z,3.90
2018-01-31T06:51:59.706Z,3.33
2018-01-31T06:54:02.349Z,2.90
2018-01-31T06:56:04.984Z,2.90
2018-01-31T06:58:07.658Z,4.33
2018-01-31T07:00:10.322Z,3.80
2018-01-31T07:02:13.723Z,2.20
2018-01-31T07:04:17.147Z,2.17
2018-01-31T07:06:19.783Z,2.20
2018-01-31T07:08:23.197Z,4.17
2018-01-31T07:10:25.868Z,4.07
2018-01-31T07:12:28.519Z,2.70
2018-01-31T07:14:31.144Z,5.70
2018-01-31T07:16:33.829Z,2.83
2018-01-31T07:18:36.478Z,2.50
2018-01-31T07:20:39.116Z,2.30
2018-01-31T07:22:41.773Z,2.90
2018-01-31T07:24:45.041Z,4.80
2018-01-31T07:26:47.875Z,5.80
2018-01-31T07:28:51.400Z,3.40
2018-01-31T07:30:54.029Z,4.03
2018-01-31T07:32:57.090Z,3.50
2018-01-31T07:34:59.730Z,5.10
2018-01-31T07:37:02.386Z,3.77
2018-01-31T07:39:05.872Z,6.13
2018-01-31T07:41:08.844Z,4.03
2018-01-31T07:43:11.505Z,4.10
2018-01-31T07:45:14.244Z,3.90
2018-01-31T07:47:16.897Z,3.43
2018-01-31T07:49:20.312Z,6.13
2018-01-31T07:51:22.987Z,4.07
2018-01-31T07:53:25.624Z,3.47
2018-01-31T07:55:28.256Z,3.90
2018-01-31T07:57:30.937Z,3.80
2018-01-31T07:59:33.686Z,3.50
2018-01-31T08:01:36.341Z,4.17
2018-01-31T08:03:39.779Z,3.70
2018-01-31T08:05:42.439Z,4.00
2018-01-31T08:07:45.127Z,3.30
2018-01-31T08:09:47.791Z,7.10
2018-01-31T08:11:50.478Z,2.90
2018-01-31T08:13:53.138Z,3.67
2018-01-31T08:15:55.774Z,3.00
2018-01-31T08:17:58.426Z,2.40
2018-01-31T08:20:01.375Z,2.30
2018-01-31T08:22:04.049Z,2.20
2018-01-31T08:24:06.717Z,2.93
2018-01-31T08:26:09.405Z,2.53
2018-01-31T08:28:12.043Z,6.23
2018-01-31T08:30:14.773Z,4.30
2018-01-31T08:32:17.449Z,2.07
2018-01-31T08:34:20.108Z,4.60
2018-01-31T08:36:22.772Z,3.80
2018-01-31T08:38:25.411Z,1.93
2018-01-31T08:40:28.096Z,3.40
2018-01-31T08:42:30.740Z,2.43
2018-01-31T08:44:33.406Z,2.80
2018-01-31T08:46:37.116Z,2.10
2018-01-31T08:48:39.998Z,2.37
2018-01-31T08:50:42.676Z,3.13
2018-01-31T08:52:45.348Z,3.03
2018-01-31T08:54:48.001Z,2.20
2018-01-31T08:56:50.893Z,4.67
2018-01-31T08:58:53.571Z,2.67
2018-01-31T09:00:56.216Z,3.13
2018-01-31T09:02:58.852Z,2.40
2018-01-31T09:05:03.058Z,2.33
2018-01-31T09:07:05.716Z,2.23
2018-01-31T09:09:08.394Z,1.73
2018-01-31T09:11:11.186Z,1.90
2018-01-31T09:13:13.833Z,1.80
2018-01-31T09:15:16.511Z,2.90
2018-01-31T09:17:19.234Z,2.63
2018-01-31T09:19:22.053Z,1.87
2018-01-31T09:21:24.744Z,2.00
2018-01-31T09:23:27.416Z,2.67
2018-01-31T09:25:30.087Z,2.07
2018-01-31T09:27:32.755Z,1.63
2018-01-31T09:29:35.421Z,1.90
2018-01-31T09:31:38.868Z,2.70
2018-01-31T09:33:41.522Z,3.30
2018-01-31T09:35:44.188Z,12.80
2018-01-31T09:37:48.172Z,2.03
2018-01-31T09:39:51.583Z,3.13
2018-01-31T09:41:54.356Z,5.57
2018-01-31T09:43:57.008Z,5.77
2018-01-31T09:46:00.534Z,2.23
2018-01-31T09:48:03.184Z,3.10
2018-01-31T09:50:06.704Z,3.17
2018-01-31T09:52:10.611Z,2.07
2018-01-31T09:54:14.582Z,2.17
2018-01-31T09:56:18.956Z,2.23
2018-01-31T09:58:22.426Z,1.80
2018-01-31T10:00:25.593Z,6.40
2018-01-31T10:02:29.016Z,3.07
2018-01-31T10:04:31.660Z,1.40
2018-01-31T10:06:35.107Z,2.00
2018-01-31T10:08:37.751Z,4.10
2018-01-31T10:10:40.412Z,1.33
2018-01-31T10:12:43.818Z,1.67
2018-01-31T10:14:46.470Z,3.70
2018-01-31T10:16:49.916Z,1.47
2018-01-31T10:18:52.775Z,6.80
2018-01-31T10:20:55.511Z,1.53
2018-01-31T10:22:58.186Z,1.70
2018-01-31T10:25:00.844Z,1.90
2018-01-31T10:27:03.518Z,1.40
2018-01-31T10:29:06.189Z,2.30
2018-01-31T10:31:08.825Z,2.47
2018-01-31T10:33:11.617Z,1.60
2018-01-31T10:35:14.258Z,3.37
2018-01-31T10:37:17.672Z,1.73
2018-01-31T10:39:20.350Z,3.67
2018-01-31T10:41:22.984Z,2.60
2018-01-31T10:43:25.634Z,8.80
2018-01-31T10:45:28.309Z,3.83
2018-01-31T10:47:30.972Z,1.83
2018-01-31T10:49:33.607Z,1.90
2018-01-31T10:51:37.035Z,2.17
2018-01-31T10:57:45.060Z,2.90
2018-01-31T10:59:47.727Z,1.50
2018-01-31T11:01:51.114Z,1.63
2018-01-31T11:03:53.071Z,2.10
2018-01-31T11:05:55.755Z,3.80
2018-01-31T11:07:58.408Z,1.70
2018-01-31T11:10:01.863Z,2.17
2018-01-31T11:12:04.572Z,5.90
2018-01-31T11:14:07.968Z,2.80
2018-01-31T11:16:11.415Z,2.83
2018-01-31T11:18:14.058Z,2.00
2018-01-31T11:20:16.696Z,1.60
2018-01-31T11:22:19.381Z,3.60
2018-01-31T11:24:22.016Z,2.60
2018-01-31T11:26:24.660Z,2.00
2018-01-31T11:28:27.342Z,1.63
2018-01-31T11:30:29.975Z,1.77
2018-01-31T11:32:32.650Z,1.90
2018-01-31T11:34:35.293Z,1.60
2018-01-31T11:36:37.927Z,1.40
2018-01-31T11:38:41.367Z,1.67
2018-01-31T11:40:43.991Z,1.60
2018-01-31T11:42:47.415Z,1.50
2018-01-31T11:44:50.063Z,1.53
2018-01-31T11:46:53.686Z,2.63
2018-01-31T11:48:56.358Z,2.10
2018-01-31T11:50:59.144Z,2.07
2018-01-31T11:53:01.793Z,2.20
2018-01-31T11:55:05.220Z,2.60
2018-01-31T11:57:07.867Z,2.50
2018-01-31T11:59:11.330Z,3.10
2018-01-31T12:01:13.967Z,3.60
2018-01-31T12:03:16.641Z,3.30
2018-01-31T12:05:19.293Z,3.23
2018-01-31T12:07:21.955Z,3.13
2018-01-31T12:09:36.274Z,2.10
2018-01-31T12:11:38.918Z,2.20
2018-01-31T12:27:11.311Z,5.60
2018-01-31T12:29:25.824Z,4.57
2018-01-31T12:31:40.362Z,2.00
2018-01-31T12:33:55.058Z,2.23
2018-01-31T12:36:09.581Z,2.60
2018-01-31T12:38:24.309Z,1.30
2018-01-31T12:40:26.436Z,1.67
2018-01-31T12:42:28.606Z,1.40
2018-01-31T12:44:30.773Z,1.70
2018-01-31T12:46:45.325Z,1.13
2018-01-31T12:49:13.698Z,1.40
2018-01-31T13:04:34.114Z,1.67
2018-01-31T13:06:48.571Z,1.10
2018-01-31T13:09:04.025Z,1.33
2018-01-31T13:13:52.603Z,1.10
2018-01-31T13:16:13.254Z,1.20
2018-01-31T13:18:27.999Z,1.67
2018-01-31T13:20:42.960Z,1.20
2018-01-31T13:23:03.618Z,1.30
2018-01-31T13:25:18.346Z,1.80
2018-01-31T13:27:53.624Z,2.27
2018-01-31T13:32:46.668Z,1.50
2018-01-31T13:35:11.081Z,1.77
2018-01-31T13:37:31.427Z,1.77
2018-01-31T13:39:45.970Z,1.77
2018-01-31T13:42:00.462Z,2.00
2018-01-31T13:44:14.946Z,1.97
2018-01-31T13:46:29.783Z,3.60
2018-01-31T13:48:44.404Z,1.80
2018-01-31T13:53:41.043Z,1.90
2018-01-31T13:55:55.604Z,3.00
2018-01-31T13:58:10.172Z,2.40
2018-01-31T14:00:24.704Z,1.70
2018-01-31T14:02:39.280Z,2.43
2018-01-31T14:04:53.921Z,1.60
2018-01-31T14:07:08.404Z,1.30
2018-01-31T14:12:17.309Z,1.20
2018-01-31T14:14:31.761Z,1.60
2018-01-31T14:17:01.168Z,2.17
2018-01-31T14:22:06.217Z,1.90
2018-01-31T14:24:19.737Z,2.10
2018-01-31T14:26:35.087Z,1.60
2018-01-31T14:28:49.678Z,1.60
2018-01-31T14:31:04.242Z,1.50
2018-01-31T14:33:18.723Z,1.77
2018-01-31T14:35:33.288Z,1.33
2018-01-31T14:37:35.435Z,2.20
2018-01-31T14:39:37.587Z,1.17
2018-01-31T14:41:39.738Z,1.30
2018-01-31T14:43:41.866Z,1.20
2018-01-31T14:45:44.791Z,1.20
2018-01-31T14:47:46.944Z,1.87
2018-01-31T14:49:49.093Z,1.63
2018-01-31T14:51:51.261Z,3.60
2018-01-31T14:53:53.416Z,5.80
2018-01-31T14:55:57.034Z,18.00
2018-01-31T14:58:00.291Z,13.50
2018-01-31T15:00:02.797Z,8.43
2018-01-31T15:02:04.934Z,4.63
2018-01-31T15:04:07.893Z,8.43
2018-01-31T15:06:10.056Z,5.50
2018-01-31T15:08:12.262Z,1.37
2018-01-31T15:10:14.493Z,6.50
2018-01-31T15:12:16.705Z,3.73
2018-01-31T15:14:19.025Z,1.80
2018-01-31T15:16:21.176Z,1.70
2018-01-31T15:18:23.315Z,8.07
2018-01-31T15:20:25.626Z,1.60
2018-01-31T15:22:27.772Z,3.87
2018-01-31T15:24:29.929Z,3.70
2018-01-31T15:26:32.083Z,2.40
2018-01-31T15:28:34.228Z,1.67
2018-01-31T15:30:36.364Z,13.90
2018-01-31T15:32:39.309Z,2.90
2018-01-31T15:34:41.452Z,11.37
2018-01-31T15:36:43.785Z,2.57
2018-01-31T15:38:45.932Z,3.60
2018-01-31T15:40:48.910Z,2.23
2018-01-31T15:42:51.090Z,3.47
2018-01-31T15:44:53.997Z,1.90
2018-01-31T15:46:56.191Z,2.60
2018-01-31T15:48:58.359Z,2.97
2018-01-31T15:51:00.500Z,2.70
2018-01-31T15:53:02.679Z,1.47
2018-01-31T15:55:04.838Z,1.70
2018-01-31T15:57:06.999Z,1.50
2018-01-31T15:59:09.162Z,1.43
2018-01-31T16:01:11.328Z,1.80
2018-01-31T16:03:13.543Z,1.50
2018-01-31T16:05:16.486Z,2.17
2018-01-31T16:07:18.821Z,2.70
2018-01-31T16:09:20.980Z,1.43
2018-01-31T16:11:23.118Z,2.00
2018-01-31T16:13:25.394Z,3.43
2018-01-31T16:15:28.505Z,2.20
2018-01-31T16:17:31.150Z,2.00
2018-01-31T16:22:15.250Z,1.80
2018-01-31T16:24:18.658Z,2.80
2018-01-31T16:26:21.302Z,2.60
2018-01-31T16:28:35.989Z,2.33
2018-01-31T16:30:48.886Z,5.77
2018-01-31T16:33:03.416Z,3.20
2018-01-31T16:35:07.143Z,2.20
2018-01-31T16:37:09.791Z,3.30
2018-01-31T16:39:13.438Z,3.20
2018-01-31T16:41:16.124Z,3.40
2018-01-31T16:43:18.779Z,1.73
2018-01-31T16:45:21.491Z,2.03
2018-01-31T16:47:24.158Z,19.97
2018-01-31T16:49:26.805Z,5.57
2018-01-31T16:51:29.480Z,2.70
2018-01-31T16:53:32.132Z,4.67
2018-01-31T16:55:34.847Z,7.20
2018-01-31T16:57:37.607Z,2.33
2018-01-31T16:59:40.332Z,4.03
2018-01-31T17:01:43.070Z,13.90
2018-01-31T17:03:45.779Z,4.00
2018-01-31T17:05:48.485Z,7.90
2018-01-31T17:07:52.034Z,10.53
2018-01-31T17:09:55.536Z,18.03
2018-01-31T17:11:58.213Z,4.20
2018-01-31T17:14:01.077Z,10.97
2018-01-31T17:16:03.746Z,6.90
2018-01-31T17:18:06.468Z,5.87
2018-01-31T17:20:09.333Z,11.30
2018-01-31T17:22:12.106Z,10.93
2018-01-31T17:24:14.756Z,50.73
2018-01-31T17:26:23.919Z,22.33
2018-01-31T17:28:26.600Z,7.23
2018-01-31T17:30:29.257Z,8.20
2018-01-31T17:32:31.909Z,12.27
2018-01-31T17:34:34.568Z,10.50
2018-01-31T17:36:37.356Z,10.80
2018-01-31T17:38:40.015Z,6.20
2018-01-31T17:40:43.844Z,3.60
2018-01-31T17:42:46.592Z,3.10
2018-01-31T17:44:50.013Z,2.83
2018-01-31T17:46:52.726Z,2.70
2018-01-31T17:48:55.482Z,2.40
2018-01-31T17:50:58.188Z,3.20
2018-01-31T17:53:00.862Z,2.60
2018-01-31T17:55:03.509Z,2.53
2018-01-31T17:57:06.191Z,3.17
2018-01-31T17:59:08.859Z,3.30
2018-01-31T18:01:11.509Z,3.10
2018-01-31T18:03:14.186Z,3.40
2018-01-31T18:05:17.884Z,2.30
2018-01-31T18:07:22.744Z,2.40
2018-01-31T18:09:26.122Z,2.17
2018-01-31T18:11:28.774Z,1.77
2018-01-31T18:13:31.458Z,2.00
2018-01-31T18:15:34.095Z,2.40
2018-01-31T18:17:36.757Z,3.50
2018-01-31T18:19:39.457Z,2.20
2018-01-31T18:21:42.274Z,2.53
2018-01-31T18:23:45.010Z,5.60
2018-01-31T18:25:47.724Z,9.97
2018-01-31T18:27:50.394Z,19.73
2018-01-31T18:29:53.060Z,36.80
2018-01-31T18:31:56.479Z,4.30
2018-01-31T18:34:02.503Z,7.10
2018-01-31T18:36:05.932Z,7.27
2018-01-31T18:38:08.619Z,43.13
2018-01-31T18:40:12.495Z,11.43
2018-01-31T18:42:15.306Z,2.83
2018-01-31T18:44:19.654Z,3.53
2018-01-31T18:46:22.415Z,3.10
2018-01-31T18:48:26.237Z,3.40
2018-01-31T18:50:29.672Z,3.87
2018-01-31T18:52:32.513Z,8.70
2018-01-31T18:54:35.259Z,3.77
2018-01-31T18:56:37.899Z,3.47
2018-01-31T18:58:40.576Z,4.67
2018-01-31T19:00:43.234Z,5.90
2018-01-31T19:02:48.893Z,4.33
2018-01-31T19:04:52.772Z,3.90
2018-01-31T19:06:55.424Z,4.97
2018-01-31T19:08:58.063Z,2.73
2018-01-31T19:11:00.970Z,4.03
2018-01-31T19:13:03.823Z,5.60
2018-01-31T19:15:06.629Z,6.30
2018-01-31T19:17:09.583Z,8.80
2018-01-31T19:19:12.215Z,7.70
2018-01-31T19:21:14.876Z,8.00
2018-01-31T19:23:17.590Z,6.70
2018-01-31T19:25:21.015Z,7.43
2018-01-31T19:27:23.806Z,10.50
2018-01-31T19:29:26.523Z,10.73
2018-01-31T19:31:29.173Z,9.80
2018-01-31T19:33:31.818Z,21.30
2018-01-31T19:35:34.688Z,9.10
2018-01-31T19:37:37.395Z,6.10
2018-01-31T19:39:40.252Z,14.03
2018-01-31T19:41:42.951Z,9.23
2018-01-31T19:43:45.587Z,11.20
2018-01-31T19:45:48.506Z,8.33
2018-01-31T19:47:51.379Z,8.80
2018-01-31T19:49:54.023Z,8.00
2018-01-31T19:51:57.452Z,12.50
2018-01-31T19:54:00.107Z,10.13
2018-01-31T19:56:02.769Z,8.53
2018-01-31T19:58:06.195Z,7.07
2018-01-31T20:00:08.850Z,7.10
2018-01-31T20:02:11.502Z,9.00
2018-01-31T20:04:15.028Z,6.40
2018-01-31T20:06:17.799Z,7.30
2018-01-31T20:08:20.491Z,9.03
2018-01-31T20:10:23.134Z,9.87
2018-01-31T20:12:26.594Z,6.90
2018-01-31T20:14:30.905Z,6.40
2018-01-31T20:16:33.644Z,6.77
2018-01-31T20:18:36.440Z,9.30
2018-01-31T20:20:39.124Z,6.17
2018-01-31T20:22:41.793Z,6.20
2018-01-31T20:24:44.474Z,5.03
2018-01-31T20:26:47.212Z,5.97
2018-01-31T20:28:49.875Z,5.67
2018-01-31T20:30:53.321Z,13.23
2018-01-31T20:32:56.014Z,8.33
2018-01-31T20:34:58.659Z,20.50
2018-01-31T20:37:01.507Z,31.07
2018-01-31T20:39:04.339Z,19.57
2018-01-31T20:41:07.011Z,11.17
2018-01-31T20:43:09.789Z,15.00
2018-01-31T20:45:13.626Z,23.80
2018-01-31T20:47:16.408Z,19.30
2018-01-31T20:49:20.586Z,14.37
2018-01-31T20:51:23.343Z,8.00
2018-01-31T20:53:26.184Z,13.87
2018-01-31T20:55:29.614Z,26.93
2018-01-31T20:57:32.799Z,17.80
2018-01-31T20:59:35.437Z,25.20
2018-01-31T21:01:38.210Z,19.63
2018-01-31T21:03:41.104Z,17.87
2018-01-31T21:05:44.632Z,13.30
2018-01-31T21:07:49.434Z,13.70
2018-01-31T21:09:52.592Z,21.87
2018-01-31T21:11:55.247Z,21.00
2018-01-31T21:13:58.848Z,14.80
2018-01-31T21:16:01.523Z,13.37
2018-01-31T21:18:04.170Z,11.57
2018-01-31T21:20:07.128Z,9.93
2018-01-31T21:22:10.649Z,8.77
2018-01-31T21:24:13.452Z,10.50
2018-01-31T21:26:17.256Z,15.03
2018-01-31T21:28:19.930Z,14.30
2018-01-31T21:30:24.538Z,11.13
2018-01-31T21:32:27.448Z,14.90
2018-01-31T21:34:30.109Z,11.40
2018-01-31T21:36:32.787Z,9.87
2018-01-31T21:38:35.580Z,11.60
2018-01-31T21:40:38.241Z,10.17
2018-01-31T21:42:40.995Z,11.80
2018-01-31T21:44:43.653Z,9.50
2018-01-31T21:46:47.153Z,9.33
2018-01-31T21:48:50.506Z,9.80
2018-01-31T21:50:53.298Z,10.20
2018-01-31T21:52:56.839Z,9.27
2018-01-31T21:54:59.767Z,10.63
2018-01-31T21:57:04.112Z,11.20
2018-01-31T21:59:07.531Z,8.73
2018-01-31T22:01:10.227Z,9.10
2018-01-31T22:03:12.900Z,8.10
2018-01-31T22:05:15.750Z,9.93
2018-01-31T22:07:18.544Z,10.10
2018-01-31T22:09:21.210Z,7.77
2018-01-31T22:11:23.938Z,7.47
2018-01-31T22:13:26.666Z,7.87
2018-01-31T22:15:29.306Z,9.03
2018-01-31T22:17:32.744Z,7.70
2018-01-31T22:19:35.417Z,8.67
2018-01-31T22:21:38.080Z,7.73
2018-01-31T22:23:41.687Z,7.90
2018-01-31T22:25:44.349Z,8.00
2018-01-31T22:27:46.994Z,6.77
2018-01-31T22:29:49.668Z,7.03
2018-01-31T22:31:52.346Z,7.60
2018-01-31T22:33:55.027Z,8.53
2018-01-31T22:35:57.865Z,8.37
2018-01-31T22:38:00.521Z,8.77
2018-01-31T22:40:03.178Z,8.00
2018-01-31T22:42:06.614Z,9.17
2018-01-31T22:44:09.281Z,9.33
2018-01-31T22:46:12.048Z,9.10
2018-01-31T22:48:14.723Z,8.80
2018-01-31T22:50:17.369Z,8.90
2018-01-31T22:52:20.861Z,7.90
2018-01-31T22:54:24.291Z,8.30
2018-01-31T22:56:26.932Z,7.47
2018-01-31T22:58:30.374Z,6.97
2018-01-31T23:00:33.023Z,7.67
2018-01-31T23:02:35.665Z,8.17
2018-01-31T23:04:38.343Z,8.13
2018-01-31T23:06:40.987Z,7.97
2018-01-31T23:08:43.642Z,7.53
2018-01-31T23:10:46.518Z,8.37
2018-01-31T23:15:21.915Z,9.10
2018-01-31T23:17:30.364Z,10.57
2018-01-31T23:19:33.789Z,15.70
2018-01-31T23:21:36.447Z,10.47
2018-01-31T23:23:39.134Z,8.63
2018-01-31T23:25:41.787Z,9.50
2018-01-31T23:27:45.204Z,10.80
2018-01-31T23:29:47.868Z,11.00
2018-01-31T23:31:50.516Z,10.63
2018-01-31T23:33:53.939Z,11.90
2018-01-31T23:35:56.626Z,11.83
2018-01-31T23:37:59.302Z,12.10
2018-01-31T23:40:01.944Z,12.20
2018-01-31T23:42:05.380Z,12.13
2018-01-31T23:44:08.036Z,11.90
2018-01-31T23:46:10.684Z,10.70
2018-01-31T23:48:14.142Z,11.60
2018-01-31T23:50:16.787Z,11.20
2018-01-31T23:52:19.805Z,9.83
2018-01-31T23:54:22.531Z,11.00
2018-01-31T23:56:25.186Z,10.20
2018-01-31T23:58:27.865Z,8.80
